createdAt,value
2023-10-02T00:01:59.700Z,91.65
2023-10-02T00:04:28.072Z,91.84
2023-10-02T00:07:08.009Z,91.86
2023-10-02T00:09:37.126Z,91.54
2023-10-02T00:12:13.787Z,91.46
2023-10-02T00:14:43.456Z,91.57
2023-10-02T00:17:15.956Z,91.49
2023-10-02T00:19:58.441Z,91.70
2023-10-02T00:22:45.142Z,91.59
2023-10-02T00:28:31.793Z,92.40
2023-10-02T00:30:59.895Z,93.09
2023-10-02T00:33:29.357Z,92.96
2023-10-02T00:35:57.904Z,92.43
2023-10-02T00:38:25.990Z,92.26
2023-10-02T00:40:53.815Z,92.55
2023-10-02T00:43:37.082Z,92.59
2023-10-02T00:46:05.200Z,92.79
2023-10-02T00:48:34.946Z,92.69
2023-10-02T00:51:08.021Z,92.50
2023-10-02T00:53:57.796Z,92.56
2023-10-02T00:56:26.225Z,93.04
2023-10-02T00:58:58.869Z,93.75
2023-10-02T01:01:27.920Z,94.00
2023-10-02T01:04:13.872Z,94.15
2023-10-02T01:07:06.867Z,94.18
2023-10-02T01:09:35.695Z,94.41
2023-10-02T01:12:04.116Z,94.22
2023-10-02T01:15:01.303Z,94.71
2023-10-02T01:17:30.216Z,95.17
2023-10-02T01:20:02.756Z,95.34
2023-10-02T01:22:44.695Z,95.05
2023-10-02T01:25:18.215Z,94.88
2023-10-02T01:27:49.304Z,94.69
2023-10-02T01:30:25.873Z,94.77
2023-10-02T01:33:13.501Z,95.31
2023-10-02T01:35:50.168Z,95.74
2023-10-02T01:38:39.004Z,96.11
2023-10-02T01:41:09.957Z,96.55
2023-10-02T01:43:44.568Z,96.71
2023-10-02T01:46:19.859Z,96.54
2023-10-02T01:48:54.064Z,96.25
2023-10-02T01:51:29.636Z,96.82
2023-10-02T01:54:00.251Z,97.34
2023-10-02T01:56:30.950Z,97.51
2023-10-02T01:59:11.383Z,97.75
2023-10-02T02:01:58.744Z,97.59
2023-10-02T02:04:29.752Z,97.53
2023-10-02T02:06:59.602Z,97.93
2023-10-02T02:09:32.805Z,97.97
2023-10-02T02:12:09.544Z,97.75
2023-10-02T02:15:04.108Z,97.54
2023-10-02T02:17:35.414Z,97.61
2023-10-02T02:20:12.788Z,97.25
2023-10-02T02:22:41.031Z,96.78
2023-10-02T02:25:09.318Z,96.50
2023-10-02T02:27:38.055Z,96.40
2023-10-02T02:30:11.776Z,96.31
2023-10-02T02:32:46.373Z,96.28
2023-10-02T02:35:19.254Z,96.83
2023-10-02T02:37:47.208Z,97.01
2023-10-02T02:40:24.076Z,96.95
2023-10-02T02:42:55.771Z,97.78
2023-10-02T02:45:32.379Z,98.13
2023-10-02T02:48:07.500Z,98.15
2023-10-02T02:50:43.666Z,98.23
2023-10-02T02:53:24.554Z,98.30
2023-10-02T02:56:24.054Z,98.08
2023-10-02T02:58:57.596Z,98.08
2023-10-02T03:01:26.657Z,98.23
2023-10-02T03:03:57.783Z,98.22
2023-10-02T03:06:26.163Z,98.05
2023-10-02T03:08:54.580Z,97.91
2023-10-02T03:11:24.531Z,97.66
2023-10-02T03:13:52.806Z,97.65
2023-10-02T03:16:30.807Z,97.50
2023-10-02T03:19:04.685Z,97.37
2023-10-02T03:21:32.809Z,97.35
2023-10-02T03:24:01.523Z,96.97
2023-10-02T03:26:35.410Z,96.57
2023-10-02T03:29:12.797Z,96.41
2023-10-02T03:31:52.084Z,96.71
2023-10-02T03:34:32.375Z,97.08
2023-10-02T03:37:09.923Z,97.23
2023-10-02T03:39:58.512Z,97.04
2023-10-02T03:42:37.650Z,97.02
2023-10-02T03:45:06.637Z,96.70
2023-10-02T03:47:35.682Z,96.54
2023-10-02T03:50:11.694Z,96.08
2023-10-02T03:52:42.550Z,96.28
2023-10-02T03:55:19.412Z,96.55
2023-10-02T03:57:52.371Z,96.91
2023-10-02T04:00:44.511Z,96.98
2023-10-02T04:03:13.015Z,97.04
2023-10-02T04:05:44.794Z,96.99
2023-10-02T04:08:23.653Z,96.56
2023-10-02T04:10:57.959Z,96.43
2023-10-02T04:13:34.040Z,96.64
2023-10-02T04:16:22.942Z,96.57
2023-10-02T04:19:00.256Z,96.70
2023-10-02T04:21:34.550Z,96.50
2023-10-02T04:24:06.662Z,96.75
2023-10-02T04:26:35.157Z,96.66
2023-10-02T04:29:16.720Z,96.50
2023-10-02T04:31:46.526Z,96.18
2023-10-02T04:34:31.111Z,96.21
2023-10-02T04:36:59.261Z,96.19
2023-10-02T04:39:32.811Z,96.38
2023-10-02T04:42:21.138Z,96.94
2023-10-02T04:44:59.576Z,97.28
2023-10-02T04:47:29.032Z,97.50
2023-10-02T04:50:05.652Z,97.91
2023-10-02T04:52:58.486Z,97.89
2023-10-02T04:55:29.503Z,98.12
2023-10-02T04:58:05.896Z,98.25
2023-10-02T05:00:34.264Z,98.36
2023-10-02T05:03:20.232Z,99.08
2023-10-02T05:05:50.891Z,99.26
2023-10-02T05:08:20.750Z,99.60
2023-10-02T05:11:06.058Z,99.88
2023-10-02T05:13:54.760Z,100.00
2023-10-02T05:16:40.411Z,100.00
2023-10-02T05:19:10.171Z,100.00
2023-10-02T05:21:50.793Z,99.69
2023-10-02T05:24:19.965Z,99.40
2023-10-02T05:26:48.739Z,99.68
2023-10-02T05:29:38.214Z,99.48
2023-10-02T05:32:17.419Z,99.37
2023-10-02T05:35:00.156Z,99.37
2023-10-02T05:37:35.275Z,99.07
2023-10-02T05:40:35.740Z,98.32
2023-10-02T05:43:06.601Z,98.21
2023-10-02T05:45:40.230Z,97.90
2023-10-02T05:48:10.086Z,97.64
2023-10-02T05:50:42.033Z,97.20
2023-10-02T05:53:13.262Z,96.55
2023-10-02T05:56:00.099Z,95.95
2023-10-02T05:58:34.151Z,95.43
2023-10-02T06:01:08.251Z,95.21
2023-10-02T06:03:38.643Z,95.12
2023-10-02T06:06:19.808Z,95.05
2023-10-02T06:09:03.110Z,94.47
2023-10-02T06:11:35.371Z,94.22
2023-10-02T06:14:11.549Z,93.68
2023-10-02T06:16:42.568Z,93.38
2023-10-02T06:19:15.278Z,93.38
2023-10-02T06:22:01.938Z,93.23
2023-10-02T06:24:30.117Z,92.90
2023-10-02T06:26:59.278Z,93.10
2023-10-02T06:29:41.753Z,92.79
2023-10-02T06:32:23.942Z,93.04
2023-10-02T06:34:59.440Z,93.02
2023-10-02T06:37:38.146Z,93.76
2023-10-02T06:40:16.430Z,93.16
2023-10-02T06:42:50.962Z,93.26
2023-10-02T06:45:22.088Z,93.53
2023-10-02T06:47:50.324Z,93.42
2023-10-02T06:50:37.337Z,92.84
2023-10-02T06:53:07.911Z,92.85
2023-10-02T06:55:36.177Z,92.58
2023-10-02T06:58:04.286Z,91.99
2023-10-02T07:00:52.142Z,91.90
2023-10-02T07:03:20.108Z,92.05
2023-10-02T07:05:51.917Z,91.88
2023-10-02T07:08:22.631Z,91.94
2023-10-02T07:10:51.831Z,91.50
2023-10-02T07:13:21.420Z,90.74
2023-10-02T07:16:01.561Z,89.98
2023-10-02T07:18:46.732Z,89.89
2023-10-02T07:21:18.303Z,89.86
2023-10-02T07:23:46.664Z,89.46
2023-10-02T07:26:21.186Z,89.72
2023-10-02T07:28:52.791Z,89.58
2023-10-02T07:31:22.743Z,89.03
2023-10-02T07:33:56.913Z,87.95
2023-10-02T07:36:28.470Z,87.77
2023-10-02T07:38:56.786Z,88.11
2023-10-02T07:41:29.669Z,87.97
2023-10-02T07:44:09.083Z,87.39
2023-10-02T07:46:38.249Z,87.53
2023-10-02T07:49:07.254Z,87.04
2023-10-02T07:51:38.119Z,85.62
2023-10-02T07:54:09.268Z,85.44
2023-10-02T07:56:37.486Z,85.10
2023-10-02T07:59:09.090Z,84.42
2023-10-02T08:01:37.552Z,83.27
2023-10-02T08:04:07.426Z,83.37
2023-10-02T08:06:38.346Z,83.22
2023-10-02T08:09:29.936Z,82.86
2023-10-02T08:11:59.758Z,82.96
2023-10-02T08:14:39.531Z,82.43
2023-10-02T08:17:29.118Z,81.54
2023-10-02T08:20:00.480Z,80.95
2023-10-02T08:22:45.734Z,80.47
2023-10-02T08:25:15.820Z,80.03
2023-10-02T08:27:46.029Z,78.94
2023-10-02T08:30:30.084Z,77.16
2023-10-02T08:33:09.979Z,77.79
2023-10-02T08:35:47.384Z,77.78
2023-10-02T08:38:25.818Z,77.37
2023-10-02T08:40:59.304Z,77.24
2023-10-02T08:43:43.270Z,76.85
2023-10-02T08:46:23.181Z,76.67
2023-10-02T08:48:58.457Z,76.82
2023-10-02T08:51:37.474Z,75.95
2023-10-02T08:54:07.372Z,75.63
2023-10-02T08:56:46.057Z,75.09
2023-10-02T08:59:28.597Z,74.68
2023-10-02T09:02:10.073Z,73.32
2023-10-02T09:04:38.556Z,72.80
2023-10-02T09:07:22.297Z,73.38
2023-10-02T09:10:05.874Z,72.16
2023-10-02T09:12:52.696Z,73.18
2023-10-02T09:15:32.754Z,73.03
2023-10-02T09:18:18.794Z,72.59
2023-10-02T09:21:14.069Z,72.29
2023-10-02T09:23:51.289Z,72.16
2023-10-02T09:26:34.155Z,71.60
2023-10-02T09:29:06.279Z,71.09
2023-10-02T09:31:36.204Z,69.94
2023-10-02T09:34:18.699Z,69.08
2023-10-02T09:37:48.828Z,67.30
2023-10-02T09:40:07.563Z,66.62
2023-10-02T09:42:37.744Z,65.19
2023-10-02T09:45:10.750Z,64.27
2023-10-02T09:47:51.284Z,63.57
2023-10-02T09:50:31.478Z,63.38
2023-10-02T09:53:03.685Z,62.63
2023-10-02T09:55:49.020Z,61.61
2023-10-02T09:58:29.868Z,61.55
2023-10-02T10:01:28.096Z,60.56
2023-10-02T10:03:58.137Z,59.47
2023-10-02T10:06:29.772Z,58.42
2023-10-02T10:09:16.609Z,58.23
2023-10-02T10:11:44.538Z,56.32
2023-10-02T10:14:46.270Z,55.97
2023-10-02T10:17:23.381Z,53.93
2023-10-02T10:20:10.916Z,49.87
2023-10-02T10:22:51.376Z,48.46
2023-10-02T10:25:22.589Z,47.93
2023-10-02T10:28:06.031Z,47.55
2023-10-02T10:30:40.402Z,45.71
2023-10-02T10:33:11.805Z,45.41
2023-10-02T10:35:53.293Z,45.11
2023-10-02T10:38:30.730Z,43.10
2023-10-02T10:41:11.468Z,42.18
2023-10-02T10:43:57.363Z,42.10
2023-10-02T10:46:29.163Z,41.69
2023-10-02T10:49:09.613Z,41.71
2023-10-02T10:51:40.061Z,40.80
2023-10-02T10:54:57.148Z,39.65
2023-10-02T10:57:27.115Z,40.03
2023-10-02T11:00:27.390Z,39.31
2023-10-02T11:02:59.216Z,37.45
2023-10-02T11:05:28.053Z,36.91
2023-10-02T11:08:00.653Z,34.40
2023-10-02T11:10:32.328Z,33.91
2023-10-02T11:13:12.822Z,31.71
2023-10-02T11:15:46.753Z,31.51
2023-10-02T11:18:24.963Z,31.16
2023-10-02T11:21:01.684Z,31.97
2023-10-02T11:23:40.231Z,33.90
2023-10-02T11:26:15.121Z,34.41
2023-10-02T11:28:56.361Z,33.57
2023-10-02T11:31:45.376Z,33.69
2023-10-02T11:36:54.037Z,34.30
2023-10-02T11:45:50.326Z,32.38
2023-10-02T11:48:18.496Z,31.40
2023-10-02T11:50:48.250Z,31.23
2023-10-02T11:53:16.903Z,32.25
2023-10-02T11:55:45.144Z,32.10
2023-10-02T11:58:15.957Z,32.62
2023-10-02T12:00:46.533Z,34.18
2023-10-02T12:03:17.544Z,35.01
2023-10-02T12:05:47.770Z,34.43
2023-10-02T12:08:21.912Z,34.19
2023-10-02T12:10:55.463Z,34.52
2023-10-02T12:13:23.873Z,35.11
2023-10-02T12:15:53.810Z,33.57
2023-10-02T12:18:22.864Z,33.03
2023-10-02T12:20:50.981Z,33.17
2023-10-02T12:23:20.756Z,32.98
2023-10-02T12:25:49.690Z,31.91
2023-10-02T12:28:20.410Z,32.04
2023-10-02T12:30:50.123Z,32.27
2023-10-02T12:33:33.587Z,32.76
2023-10-02T12:36:21.486Z,31.80
2023-10-02T12:38:52.003Z,32.22
2023-10-02T12:41:29.102Z,33.92
2023-10-02T12:43:57.961Z,35.65
2023-10-02T12:46:32.968Z,35.55
2023-10-02T12:49:02.580Z,34.67
2023-10-02T12:51:32.572Z,34.81
2023-10-02T12:54:00.504Z,33.84
2023-10-02T12:56:28.879Z,34.32
2023-10-02T12:58:57.323Z,35.32
2023-10-02T13:01:28.706Z,35.89
2023-10-02T13:04:00.945Z,35.56
2023-10-02T13:06:31.083Z,35.46
2023-10-02T13:09:25.767Z,35.59
2023-10-02T13:11:56.720Z,35.31
2023-10-02T13:14:24.855Z,35.81
2023-10-02T13:16:53.930Z,35.17
2023-10-02T13:19:25.136Z,34.29
2023-10-02T13:21:55.162Z,34.71
2023-10-02T13:24:25.680Z,35.38
2023-10-02T13:26:55.076Z,34.93
2023-10-02T13:29:25.641Z,35.51
2023-10-02T13:31:54.103Z,35.05
2023-10-02T13:34:22.534Z,34.87
2023-10-02T13:36:50.775Z,34.55
2023-10-02T13:39:19.708Z,34.34
2023-10-02T13:41:48.544Z,33.40
2023-10-02T13:44:19.049Z,34.15
2023-10-02T13:46:50.211Z,35.32
2023-10-02T13:49:22.803Z,36.37
2023-10-02T13:51:52.337Z,37.11
2023-10-02T13:54:21.456Z,38.19
2023-10-02T13:56:54.168Z,39.66
2023-10-02T13:59:22.791Z,40.87
2023-10-02T14:01:51.030Z,40.47
2023-10-02T14:04:20.672Z,38.72
2023-10-02T14:06:50.344Z,38.52
2023-10-02T14:09:22.138Z,39.16
2023-10-02T14:11:52.477Z,38.51
2023-10-02T14:14:21.940Z,37.62
2023-10-02T14:16:53.712Z,39.13
2023-10-02T14:19:23.538Z,39.94
2023-10-02T14:21:53.063Z,41.39
2023-10-02T14:24:21.240Z,42.04
2023-10-02T14:26:51.707Z,42.98
2023-10-02T14:29:20.297Z,43.27
2023-10-02T14:31:48.856Z,43.62
2023-10-02T14:34:17.092Z,44.20
2023-10-02T14:36:45.446Z,44.69
2023-10-02T14:39:16.942Z,45.49
2023-10-02T14:41:45.183Z,45.84
2023-10-02T14:44:16.224Z,46.51
2023-10-02T14:46:45.004Z,46.84
2023-10-02T14:49:13.046Z,47.60
2023-10-02T14:51:41.609Z,47.23
2023-10-02T14:54:09.595Z,47.12
2023-10-02T14:56:38.810Z,47.81
2023-10-02T14:59:07.746Z,48.10
2023-10-02T15:01:36.866Z,48.32
2023-10-02T15:04:05.182Z,48.61
2023-10-02T15:06:34.477Z,48.94
2023-10-02T15:09:04.490Z,49.11
2023-10-02T15:11:37.602Z,49.37
2023-10-02T15:14:05.893Z,50.12
2023-10-02T15:16:38.170Z,50.43
2023-10-02T15:19:07.519Z,50.28
2023-10-02T15:21:36.562Z,50.74
2023-10-02T15:24:05.393Z,50.82
2023-10-02T15:26:34.240Z,51.01
2023-10-02T15:29:05.434Z,51.05
2023-10-02T15:31:33.719Z,51.42
2023-10-02T15:34:04.120Z,51.73
2023-10-02T15:36:32.177Z,52.09
2023-10-02T15:39:04.111Z,52.50
2023-10-02T15:41:33.742Z,52.64
2023-10-02T15:52:37.440Z,54.06
2023-10-02T15:55:11.590Z,54.51
2023-10-02T15:57:41.565Z,54.56
2023-10-02T16:00:14.518Z,54.67
2023-10-02T16:02:46.969Z,54.63
2023-10-02T16:05:14.992Z,55.15
2023-10-02T16:07:44.052Z,55.88
2023-10-02T16:10:14.680Z,55.52
2023-10-02T16:12:46.995Z,55.86
2023-10-02T16:15:16.769Z,56.24
2023-10-02T16:17:49.374Z,56.00
2023-10-02T16:20:22.933Z,56.63
2023-10-02T16:22:55.248Z,56.61
2023-10-02T16:25:23.554Z,56.20
2023-10-02T16:27:53.720Z,56.39
2023-10-02T16:30:28.158Z,57.06
2023-10-02T16:32:56.818Z,56.95
2023-10-02T16:35:32.971Z,57.41
2023-10-02T16:38:05.208Z,57.71
2023-10-02T16:40:34.700Z,57.89
2023-10-02T16:43:05.800Z,58.09
2023-10-02T16:45:34.577Z,58.47
2023-10-02T16:48:06.953Z,59.00
2023-10-02T16:50:36.747Z,58.84
2023-10-02T16:53:04.932Z,58.66
2023-10-02T16:55:33.107Z,58.77
2023-10-02T16:58:01.952Z,58.97
2023-10-02T17:00:29.978Z,59.08
2023-10-02T17:02:59.167Z,59.65
2023-10-02T17:05:29.531Z,59.67
2023-10-02T17:07:59.648Z,59.79
2023-10-02T17:10:27.676Z,59.76
2023-10-02T17:13:01.132Z,59.60
2023-10-02T17:15:34.535Z,59.95
2023-10-02T17:18:03.011Z,59.84
2023-10-02T17:20:31.063Z,59.97
2023-10-02T17:23:02.382Z,59.85
2023-10-02T17:25:30.794Z,59.96
2023-10-02T17:28:02.564Z,60.29
2023-10-02T17:30:33.275Z,60.40
2023-10-02T17:33:03.236Z,60.49
2023-10-02T17:35:31.617Z,60.83
2023-10-02T17:38:00.574Z,60.43
2023-10-02T17:40:28.616Z,60.69
2023-10-02T17:42:56.967Z,60.65
2023-10-02T17:45:25.375Z,60.62
2023-10-02T17:47:53.514Z,60.92
2023-10-02T17:50:22.740Z,61.39
2023-10-02T17:52:50.731Z,61.67
2023-10-02T17:55:18.847Z,62.17
2023-10-02T17:57:48.707Z,62.42
2023-10-02T18:00:19.303Z,62.35
2023-10-02T18:02:48.760Z,62.86
2023-10-02T18:05:18.070Z,63.23
2023-10-02T18:07:46.546Z,63.39
2023-10-02T18:10:16.400Z,63.82
2023-10-02T18:12:44.700Z,64.05
2023-10-02T18:15:15.934Z,64.74
2023-10-02T18:17:45.279Z,64.81
2023-10-02T18:20:14.138Z,65.79
2023-10-02T18:22:45.142Z,65.89
2023-10-02T18:25:13.251Z,66.34
2023-10-02T18:27:41.186Z,66.54
2023-10-02T18:30:10.758Z,66.55
2023-10-02T18:32:39.398Z,66.62
2023-10-02T18:35:11.027Z,66.86
2023-10-02T18:37:39.527Z,66.91
2023-10-02T18:40:10.011Z,66.91
2023-10-02T18:42:38.874Z,66.76
2023-10-02T18:45:07.776Z,66.87
2023-10-02T18:47:36.311Z,66.88
2023-10-02T18:50:07.404Z,66.91
2023-10-02T18:52:38.416Z,66.67
2023-10-02T18:55:08.917Z,66.92
2023-10-02T18:57:40.034Z,66.68
2023-10-02T19:00:12.724Z,67.11
2023-10-02T19:02:41.010Z,67.17
2023-10-02T19:05:09.687Z,67.72
2023-10-02T19:07:39.120Z,67.87
2023-10-02T19:10:07.866Z,68.34
2023-10-02T19:12:36.010Z,68.48
2023-10-02T19:15:04.773Z,68.59
2023-10-02T19:17:33.896Z,68.59
2023-10-02T19:20:06.812Z,68.87
2023-10-02T19:22:36.842Z,69.17
2023-10-02T19:25:05.401Z,69.52
2023-10-02T19:27:33.490Z,69.75
2023-10-02T19:30:01.284Z,69.84
2023-10-02T19:32:29.701Z,70.06
2023-10-02T19:34:57.639Z,70.55
2023-10-02T19:37:25.674Z,70.64
2023-10-02T19:39:54.748Z,70.96
2023-10-02T19:42:22.718Z,71.09
2023-10-02T19:44:50.723Z,70.81
2023-10-02T19:47:18.622Z,71.63
2023-10-02T19:49:46.928Z,72.08
2023-10-02T19:52:14.920Z,72.25
2023-10-02T19:54:44.185Z,72.51
2023-10-02T19:57:12.210Z,72.77
2023-10-02T19:59:40.229Z,72.76
2023-10-02T20:02:08.251Z,73.27
2023-10-02T20:04:37.222Z,73.56
2023-10-02T20:07:05.124Z,74.21
2023-10-02T20:09:34.809Z,74.68
2023-10-02T20:12:02.795Z,74.76
2023-10-02T20:14:30.837Z,74.77
2023-10-02T20:16:59.208Z,75.06
2023-10-02T20:19:28.147Z,75.53
2023-10-02T20:21:56.079Z,75.38
2023-10-02T20:24:23.977Z,75.73
2023-10-02T20:26:52.231Z,76.07
2023-10-02T20:29:20.377Z,76.27
2023-10-02T20:31:49.989Z,76.57
2023-10-02T20:34:30.719Z,76.81
2023-10-02T20:37:05.590Z,77.33
2023-10-02T20:39:33.590Z,77.90
2023-10-02T20:42:02.385Z,78.01
2023-10-02T20:44:33.032Z,78.48
2023-10-02T20:47:12.273Z,78.44
2023-10-02T20:49:44.314Z,78.40
2023-10-02T20:52:12.762Z,78.42
2023-10-02T20:54:40.645Z,78.75
2023-10-02T20:57:09.406Z,79.01
2023-10-02T20:59:38.081Z,79.65
2023-10-02T21:02:06.137Z,79.84
2023-10-02T21:04:34.502Z,80.48
2023-10-02T21:07:02.511Z,80.57
2023-10-02T21:09:31.023Z,80.66
2023-10-02T21:11:58.817Z,80.54
2023-10-02T21:14:26.749Z,80.59
2023-10-02T21:16:54.596Z,81.31
2023-10-02T21:19:22.451Z,81.36
2023-10-02T21:21:53.292Z,80.93
2023-10-02T21:24:24.664Z,80.85
2023-10-02T21:26:52.692Z,80.85
2023-10-02T21:29:20.639Z,80.88
2023-10-02T21:31:48.445Z,80.92
2023-10-02T21:34:17.030Z,80.83
2023-10-02T21:36:44.946Z,80.68
2023-10-02T21:39:15.695Z,80.51
2023-10-02T21:41:45.778Z,80.72
2023-10-02T21:44:13.804Z,81.22
2023-10-02T21:46:41.795Z,81.19
2023-10-02T21:49:09.619Z,81.09
2023-10-02T21:51:37.613Z,80.84
2023-10-02T21:54:06.962Z,81.38
2023-10-02T21:56:36.235Z,81.64
2023-10-02T21:59:04.701Z,81.68
2023-10-02T22:01:33.604Z,81.93
2023-10-02T22:04:02.274Z,82.08
2023-10-02T22:06:30.830Z,82.35
2023-10-02T22:08:58.993Z,82.45
2023-10-02T22:11:27.073Z,82.74
2023-10-02T22:13:54.963Z,83.40
2023-10-02T22:16:28.107Z,83.42
2023-10-02T22:18:55.910Z,84.40
2023-10-02T22:21:25.658Z,84.16
2023-10-02T22:23:54.348Z,84.05
2023-10-02T22:26:22.306Z,83.98
2023-10-02T22:28:50.343Z,86.01
2023-10-02T22:31:18.914Z,85.97
2023-10-02T22:33:48.385Z,85.53
2023-10-02T22:36:17.659Z,86.30
2023-10-02T22:38:46.351Z,86.98
2023-10-02T22:41:14.939Z,87.02
2023-10-02T22:43:42.955Z,87.56
2023-10-02T22:46:12.641Z,87.53
2023-10-02T22:48:40.800Z,87.99
2023-10-02T22:51:09.323Z,88.26
2023-10-02T22:53:38.355Z,89.00
2023-10-02T22:56:06.400Z,88.76
2023-10-02T22:58:34.404Z,88.80
2023-10-02T23:01:05.546Z,89.19
2023-10-02T23:03:35.015Z,89.58
2023-10-02T23:06:07.048Z,89.69
2023-10-02T23:08:35.000Z,89.85
2023-10-02T23:11:07.907Z,90.09
2023-10-02T23:13:35.847Z,90.00
2023-10-02T23:16:03.829Z,90.02
2023-10-02T23:18:36.542Z,90.27
2023-10-02T23:21:04.725Z,90.64
2023-10-02T23:23:32.995Z,90.82
2023-10-02T23:26:00.857Z,90.88
2023-10-02T23:28:28.677Z,91.38
2023-10-02T23:30:56.716Z,91.20
2023-10-02T23:33:24.875Z,91.36
2023-10-02T23:35:54.133Z,91.63
2023-10-02T23:38:22.170Z,91.71
2023-10-02T23:40:50.004Z,92.33
2023-10-02T23:43:20.661Z,92.58
2023-10-02T23:45:52.402Z,92.64
2023-10-02T23:48:21.875Z,92.55
2023-10-02T23:50:50.714Z,93.02
2023-10-02T23:53:25.876Z,92.91
2023-10-02T23:56:04.734Z,92.75
2023-10-02T23:58:33.556Z,92.99
